Cape Bata — V7EF2 — position and weather

sailwx.info

Track history (hours):
 
Tides and Currents Weather Stations Pressure Air Temp Water Temp Dewpoint Dewpoint Depression Visibility Wind Speed Wind Dir Waves Ship Positions

Cape Bata

Last reported at 2014-Jul-06 14:24 UTC. Time now 2014-Aug-01 12:02 UTC.
Position N 01°14' E 103°26'.
Warning: this ship's position is 25 days out of date.

Length 274 m; draft 9 m.

Type: Tanker. MMSI: 538090162.

Date/timePositionNaut miles runAvg speedWind from/ knotsBaromVisibWave heightAir tempDewpointWater temp
2014-Jul-06 14:24N 01°14' E 103°26'910.9
2014-Jul-06 13:33N 01°12' E 103°35'1010.1
2014-Jul-06 12:33N 01°09' E 103°45'1110.6
2014-Jul-06 11:33N 01°14' E 103°54'1 1.2
2014-Jul-06 10:31N 01°15' E 103°55'0 0.0
2014-Jul-06 09:13N 01°15' E 103°55'0 0.1
2014-Jul-06 08:31N 01°15' E 103°55'0 0.2
2014-Jul-06 07:28N 01°15' E 103°55'0 0.3
2014-Jul-06 06:31N 01°15' E 103°55'0 0.1
2014-Jul-06 05:31N 01°15' E 103°55'0 0.1
2014-Jul-06 04:16N 01°15' E 103°55'0 0.0
2014-Jul-06 03:19N 01°15' E 103°55'0 0.1
2014-Jul-06 02:16N 01°15' E 103°55'0 0.0
2014-Jul-05 23:19N 01°15' E 103°55'0 0.0
2014-Jul-05 22:31N 01°15' E 103°55'0 0.0
2014-Jul-05 14:25N 01°15' E 103°55'0 0.0
2014-Jul-05 13:31N 01°15' E 103°55'0 0.0
2014-Jul-05 12:25N 01°15' E 103°55'0 0.1
2014-Jul-05 11:04N 01°15' E 103°55'0 0.0
2014-Jul-05 10:31N 01°15' E 103°55'0 0.0
2014-Jul-05 09:25N 01°15' E 103°55'0 0.0
2014-Jul-05 08:04N 01°15' E 103°55'0 0.2
2014-Jul-05 07:27N 01°15' E 103°55'1 1.6
2014-Jul-05 06:33N 01°15' E 103°56'2 1.7
2014-Jul-05 05:28N 01°15' E 103°58'  
2014-Jul-01 00:32N 01°12' E 103°52'8 8.5
2014-Jun-30 23:33N 01°16' E 103°45'2 1.8
2014-Jun-30 22:33N 01°18' E 103°44'0 0.0
2014-Jun-29 10:33N 01°18' E 103°44'3 2.9
2014-Jun-29 09:33N 01°15' E 103°44'3 0.1
2014-Jun-28 06:24N 01°14' E 103°41'1 1.6
2014-Jun-28 05:33N 01°13' E 103°40'1 1.2
2014-Jun-28 04:33N 01°12' E 103°41'0 0.0
2014-Jun-28 03:26N 01°12' E 103°41'0 0.0
2014-Jun-28 02:30N 01°12' E 103°41'0 0.0
2014-Jun-28 01:33N 01°12' E 103°41'0 0.0
2014-Jun-28 00:30N 01°12' E 103°41'0 0.0
2014-Jun-27 23:33N 01°12' E 103°41'0 0.0
2014-Jun-27 22:18N 01°12' E 103°41'0 0.0
2014-Jun-27 21:33N 01°12' E 103°41'0 0.0
2014-Jun-27 20:33N 01°12' E 103°41'0 0.0
2014-Jun-27 19:30N 01°12' E 103°41'0 0.0
2014-Jun-27 18:27N 01°12' E 103°41'0 0.0
2014-Jun-27 17:33N 01°12' E 103°41'0 0.0
2014-Jun-27 16:33N 01°12' E 103°41'0 0.1
2014-Jun-27 15:33N 01°12' E 103°41'0 0.1
2014-Jun-27 14:24N 01°12' E 103°41'0 0.2
2014-Jun-27 13:24N 01°12' E 103°40'0 0.1
2014-Jun-27 12:33N 01°12' E 103°40'0 0.0
2014-Jun-27 11:18N 01°12' E 103°40'0 0.0
2014-Jun-27 10:18N 01°12' E 103°40'0 0.0
2014-Jun-27 09:33N 01°12' E 103°40'0 0.0
2014-Jun-27 08:12N 01°12' E 103°40'0 0.0
2014-Jun-27 07:33N 01°12' E 103°40'0 0.2
2014-Jun-27 06:30N 01°12' E 103°41'0 0.0
2014-Jun-27 05:25N 01°12' E 103°41'0 0.1
2014-Jun-27 04:30N 01°12' E 103°41'0 0.0
2014-Jun-27 03:33N 01°12' E 103°41'0 0.0
2014-Jun-27 02:24N 01°12' E 103°41'0 0.0
2014-Jun-27 01:33N 01°12' E 103°41'0 0.0
2014-Jun-27 00:33N 01°12' E 103°41'0 0.0
2014-Jun-26 23:33N 01°12' E 103°41'0 0.0
2014-Jun-26 22:24N 01°12' E 103°41'0 0.0
2014-Jun-26 21:33N 01°12' E 103°41'0 0.1
2014-Jun-26 20:30N 01°12' E 103°41'0 0.0
2014-Jun-26 19:33N 01°12' E 103°41'0 0.1
2014-Jun-26 18:33N 01°12' E 103°41'0 0.0
2014-Jun-26 17:30N 01°12' E 103°41'0 0.0
2014-Jun-26 16:33N 01°12' E 103°41'0 0.0
2014-Jun-26 15:30N 01°12' E 103°41'0 0.0
2014-Jun-26 14:33N 01°12' E 103°41'  
Track history (hours):
 
Tides and Currents Weather Stations Pressure Air Temp Water Temp Dewpoint Dewpoint Depression Visibility Wind Speed Wind Dir Waves Ship Positions

Cape Bata

Last reported at 2014-Jul-06 14:24 UTC. Time now 2014-Aug-01 12:02 UTC.
Position N 01°14' E 103°26'.
Warning: this ship's position is 25 days out of date.

Length 274 m; draft 9 m.

Type: Tanker. MMSI: 538090162.

Date/timePositionNaut miles runAvg speedWind from/ knotsBaromVisibWave heightAir tempDewpointWater temp
2014-Jul-06 14:24N 01°14' E 103°26'910.9
2014-Jul-06 13:33N 01°12' E 103°35'1010.1
2014-Jul-06 12:33N 01°09' E 103°45'1110.6
2014-Jul-06 11:33N 01°14' E 103°54'1 1.2
2014-Jul-06 10:31N 01°15' E 103°55'0 0.0
2014-Jul-06 09:13N 01°15' E 103°55'0 0.1
2014-Jul-06 08:31N 01°15' E 103°55'0 0.2
2014-Jul-06 07:28N 01°15' E 103°55'0 0.3
2014-Jul-06 06:31N 01°15' E 103°55'0 0.1
2014-Jul-06 05:31N 01°15' E 103°55'0 0.1
2014-Jul-06 04:16N 01°15' E 103°55'0 0.0
2014-Jul-06 03:19N 01°15' E 103°55'0 0.1
2014-Jul-06 02:16N 01°15' E 103°55'0 0.0
2014-Jul-05 23:19N 01°15' E 103°55'0 0.0
2014-Jul-05 22:31N 01°15' E 103°55'0 0.0
2014-Jul-05 14:25N 01°15' E 103°55'0 0.0
2014-Jul-05 13:31N 01°15' E 103°55'0 0.0
2014-Jul-05 12:25N 01°15' E 103°55'0 0.1
2014-Jul-05 11:04N 01°15' E 103°55'0 0.0
2014-Jul-05 10:31N 01°15' E 103°55'0 0.0
2014-Jul-05 09:25N 01°15' E 103°55'0 0.0
2014-Jul-05 08:04N 01°15' E 103°55'0 0.2
2014-Jul-05 07:27N 01°15' E 103°55'1 1.6
2014-Jul-05 06:33N 01°15' E 103°56'2 1.7
2014-Jul-05 05:28N 01°15' E 103°58'  
2014-Jul-01 00:32N 01°12' E 103°52'8 8.5
2014-Jun-30 23:33N 01°16' E 103°45'2 1.8
2014-Jun-30 22:33N 01°18' E 103°44'0 0.0
2014-Jun-29 10:33N 01°18' E 103°44'3 2.9
2014-Jun-29 09:33N 01°15' E 103°44'3 0.1
2014-Jun-28 06:24N 01°14' E 103°41'1 1.6
2014-Jun-28 05:33N 01°13' E 103°40'1 1.2
2014-Jun-28 04:33N 01°12' E 103°41'0 0.0
2014-Jun-28 03:26N 01°12' E 103°41'0 0.0
2014-Jun-28 02:30N 01°12' E 103°41'0 0.0
2014-Jun-28 01:33N 01°12' E 103°41'0 0.0
2014-Jun-28 00:30N 01°12' E 103°41'0 0.0
2014-Jun-27 23:33N 01°12' E 103°41'0 0.0
2014-Jun-27 22:18N 01°12' E 103°41'0 0.0
2014-Jun-27 21:33N 01°12' E 103°41'0 0.0
2014-Jun-27 20:33N 01°12' E 103°41'0 0.0
2014-Jun-27 19:30N 01°12' E 103°41'0 0.0
2014-Jun-27 18:27N 01°12' E 103°41'0 0.0
2014-Jun-27 17:33N 01°12' E 103°41'0 0.0
2014-Jun-27 16:33N 01°12' E 103°41'0 0.1
2014-Jun-27 15:33N 01°12' E 103°41'0 0.1
2014-Jun-27 14:24N 01°12' E 103°41'0 0.2
2014-Jun-27 13:24N 01°12' E 103°40'0 0.1
2014-Jun-27 12:33N 01°12' E 103°40'0 0.0
2014-Jun-27 11:18N 01°12' E 103°40'0 0.0
2014-Jun-27 10:18N 01°12' E 103°40'0 0.0
2014-Jun-27 09:33N 01°12' E 103°40'0 0.0
2014-Jun-27 08:12N 01°12' E 103°40'0 0.0
2014-Jun-27 07:33N 01°12' E 103°40'0 0.2
2014-Jun-27 06:30N 01°12' E 103°41'0 0.0
2014-Jun-27 05:25N 01°12' E 103°41'0 0.1
2014-Jun-27 04:30N 01°12' E 103°41'0 0.0
2014-Jun-27 03:33N 01°12' E 103°41'0 0.0
2014-Jun-27 02:24N 01°12' E 103°41'0 0.0
2014-Jun-27 01:33N 01°12' E 103°41'0 0.0
2014-Jun-27 00:33N 01°12' E 103°41'0 0.0
2014-Jun-26 23:33N 01°12' E 103°41'0 0.0
2014-Jun-26 22:24N 01°12' E 103°41'0 0.0
2014-Jun-26 21:33N 01°12' E 103°41'0 0.1
2014-Jun-26 20:30N 01°12' E 103°41'0 0.0
2014-Jun-26 19:33N 01°12' E 103°41'0 0.1
2014-Jun-26 18:33N 01°12' E 103°41'0 0.0
2014-Jun-26 17:30N 01°12' E 103°41'0 0.0
2014-Jun-26 16:33N 01°12' E 103°41'0 0.0
2014-Jun-26 15:30N 01°12' E 103°41'0 0.0
2014-Jun-26 14:33N 01°12' E 103°41'  

Dump ship's entire track history